createdAt,value
2018-11-07T11:51:48.109Z,57
2018-11-07T12:07:12.041Z,57.6
2018-11-07T12:08:38.154Z,57.7
2018-11-07T13:59:32.276Z,58.3
2018-11-07T14:00:35.710Z,57.7
2018-11-07T14:01:39.110Z,57.5
2018-11-07T14:02:42.544Z,56.7
2018-11-07T14:03:45.984Z,56.7
2018-11-07T14:05:07.364Z,57.7
2018-11-07T14:15:11.116Z,58
2018-11-07T14:25:14.591Z,57.4
2018-11-07T14:35:18.064Z,58
2018-11-07T14:45:21.510Z,59.1
2018-11-07T14:55:24.979Z,59.7
2018-11-07T15:05:28.569Z,62.2
2018-11-07T15:15:32.223Z,62.2
2018-11-07T15:25:35.704Z,62.6
2018-11-07T15:35:39.165Z,63.2
2018-11-07T15:45:42.632Z,63.9
2018-11-07T15:55:46.107Z,65.1
2018-11-07T16:05:49.564Z,65.5
2018-11-07T16:15:53.087Z,66.1
2018-11-07T16:25:56.939Z,67.1
2018-11-07T16:36:00.684Z,67.2
2018-11-07T16:46:04.147Z,67.3
2018-11-07T16:56:07.607Z,67.7
2018-11-07T17:06:11.065Z,68.2
2018-11-07T17:16:14.485Z,68.6
2018-11-07T17:26:17.913Z,69.5
2018-11-07T17:36:21.368Z,68.9
2018-11-07T17:46:24.818Z,70.3
2018-11-07T17:56:28.428Z,70.3
2018-11-07T18:06:32.124Z,70.8
2018-11-07T18:16:35.577Z,70.8
2018-11-07T18:26:39.050Z,70.7
2018-11-07T18:36:42.520Z,72.1
2018-11-07T18:46:46.002Z,72.1
2018-11-07T18:56:49.438Z,72.2
2018-11-07T19:06:52.841Z,72.4
2018-11-07T19:16:56.387Z,73.4
2018-11-07T19:27:00.458Z,73.1
2018-11-07T19:37:04.148Z,74.3
2018-11-07T19:47:07.934Z,73
2018-11-07T19:57:11.750Z,74.4
2018-11-07T20:07:16.240Z,74.3
2018-11-07T20:17:19.682Z,74.9
2018-11-07T20:27:23.109Z,74.9
2018-11-07T20:37:26.561Z,74.6
2018-11-07T20:47:30.032Z,74.4
2018-11-07T20:57:33.454Z,74.5
2018-11-07T21:07:36.911Z,73.2
2018-11-07T21:17:40.375Z,73.6
2018-11-07T21:27:43.827Z,73.3
2018-11-07T21:37:47.231Z,73.4
2018-11-07T21:47:50.668Z,74.4
2018-11-07T21:57:54.127Z,74.1
2018-11-07T22:07:57.571Z,73.6
2018-11-07T22:18:01.020Z,75.1
2018-11-07T22:28:04.472Z,74.9
2018-11-07T22:38:07.932Z,74.3
2018-11-07T22:48:11.383Z,74.6
2018-11-07T22:58:14.847Z,75.2
2018-11-07T23:08:18.286Z,76.3
2018-11-07T23:18:21.779Z,76
2018-11-07T23:28:25.232Z,77.3
2018-11-07T23:38:28.651Z,77.1
2018-11-07T23:48:32.115Z,77.9
2018-11-07T23:58:35.578Z,78.4
